sensor_id;sensor_type;location;lat;lon;timestamp;P1;durP1;ratioP1;P2;durP2;ratioP2
50495;SDS011;38806;51.554;5.704;2022-12-04T00:01:33;68.57;;;31.92;;
50495;SDS011;38806;51.554;5.704;2022-12-04T00:03:33;64.75;;;35.05;;
50495;SDS011;38806;51.554;5.704;2022-12-04T00:05:33;59.00;;;30.52;;
50495;SDS011;38806;51.554;5.704;2022-12-04T00:07:34;61.80;;;32.83;;
50495;SDS011;38806;51.554;5.704;2022-12-04T00:09:34;60.05;;;31.88;;
50495;SDS011;38806;51.554;5.704;2022-12-04T00:11:34;72.57;;;33.20;;
50495;SDS011;38806;51.554;5.704;2022-12-04T00:13:35;62.55;;;33.22;;
50495;SDS011;38806;51.554;5.704;2022-12-04T00:15:39;70.53;;;30.70;;
50495;SDS011;38806;51.554;5.704;2022-12-04T00:17:39;71.10;;;34.25;;
50495;SDS011;38806;51.554;5.704;2022-12-04T00:19:39;64.57;;;33.92;;
50495;SDS011;38806;51.554;5.704;2022-12-04T00:21:40;64.82;;;32.45;;
50495;SDS011;38806;51.554;5.704;2022-12-04T00:23:40;65.85;;;31.80;;
50495;SDS011;38806;51.554;5.704;2022-12-04T00:25:41;67.18;;;31.75;;
50495;SDS011;38806;51.554;5.704;2022-12-04T00:27:41;64.82;;;31.92;;
50495;SDS011;38806;51.554;5.704;2022-12-04T00:29:41;66.78;;;33.10;;
50495;SDS011;38806;51.554;5.704;2022-12-04T00:31:41;67.88;;;35.35;;
50495;SDS011;38806;51.554;5.704;2022-12-04T00:33:42;67.10;;;36.55;;
50495;SDS011;38806;51.554;5.704;2022-12-04T00:35:42;71.95;;;35.00;;
50495;SDS011;38806;51.554;5.704;2022-12-04T00:37:42;64.50;;;33.67;;
50495;SDS011;38806;51.554;5.704;2022-12-04T00:39:42;70.05;;;33.05;;
50495;SDS011;38806;51.554;5.704;2022-12-04T00:41:43;58.38;;;32.58;;
50495;SDS011;38806;51.554;5.704;2022-12-04T00:43:43;68.43;;;33.38;;
50495;SDS011;38806;51.554;5.704;2022-12-04T00:45:44;67.93;;;32.35;;
50495;SDS011;38806;51.554;5.704;2022-12-04T00:47:45;70.13;;;32.72;;
50495;SDS011;38806;51.554;5.704;2022-12-04T00:49:45;67.20;;;32.97;;
50495;SDS011;38806;51.554;5.704;2022-12-04T00:51:45;72.50;;;35.13;;
50495;SDS011;38806;51.554;5.704;2022-12-04T00:53:45;63.08;;;31.35;;
50495;SDS011;38806;51.554;5.704;2022-12-04T00:55:45;64.60;;;32.50;;
50495;SDS011;38806;51.554;5.704;2022-12-04T00:57:46;67.80;;;31.05;;
50495;SDS011;38806;51.554;5.704;2022-12-04T00:59:46;68.30;;;31.50;;
50495;SDS011;38806;51.554;5.704;2022-12-04T01:01:46;65.07;;;33.53;;
50495;SDS011;38806;51.554;5.704;2022-12-04T01:03:47;67.25;;;32.63;;
50495;SDS011;38806;51.554;5.704;2022-12-04T01:05:47;62.95;;;30.10;;
50495;SDS011;38806;51.554;5.704;2022-12-04T01:07:47;64.25;;;32.30;;
50495;SDS011;38806;51.554;5.704;2022-12-04T01:09:47;66.57;;;32.63;;
50495;SDS011;38806;51.554;5.704;2022-12-04T01:11:47;64.85;;;30.65;;
50495;SDS011;38806;51.554;5.704;2022-12-04T01:13:48;61.72;;;34.08;;
50495;SDS011;38806;51.554;5.704;2022-12-04T01:15:48;63.28;;;32.28;;
50495;SDS011;38806;51.554;5.704;2022-12-04T01:17:49;60.92;;;34.22;;
50495;SDS011;38806;51.554;5.704;2022-12-04T01:19:49;65.38;;;31.45;;
50495;SDS011;38806;51.554;5.704;2022-12-04T01:21:49;64.38;;;34.38;;
50495;SDS011;38806;51.554;5.704;2022-12-04T01:23:49;68.30;;;32.97;;
50495;SDS011;38806;51.554;5.704;2022-12-04T01:25:50;67.55;;;31.30;;
50495;SDS011;38806;51.554;5.704;2022-12-04T01:27:51;64.18;;;34.90;;
50495;SDS011;38806;51.554;5.704;2022-12-04T01:29:51;65.57;;;32.53;;
50495;SDS011;38806;51.554;5.704;2022-12-04T01:31:51;67.93;;;31.48;;
50495;SDS011;38806;51.554;5.704;2022-12-04T01:33:51;65.63;;;31.75;;
50495;SDS011;38806;51.554;5.704;2022-12-04T01:35:52;73.55;;;34.33;;
50495;SDS011;38806;51.554;5.704;2022-12-04T01:37:53;74.65;;;37.10;;
50495;SDS011;38806;51.554;5.704;2022-12-04T01:39:53;62.85;;;32.40;;
50495;SDS011;38806;51.554;5.704;2022-12-04T01:41:53;64.60;;;34.17;;
50495;SDS011;38806;51.554;5.704;2022-12-04T01:46:09;63.00;;;31.45;;
50495;SDS011;38806;51.554;5.704;2022-12-04T01:48:12;64.95;;;33.17;;
50495;SDS011;38806;51.554;5.704;2022-12-04T01:50:15;72.75;;;34.20;;
50495;SDS011;38806;51.554;5.704;2022-12-04T01:52:18;70.85;;;33.90;;
50495;SDS011;38806;51.554;5.704;2022-12-04T01:54:21;69.88;;;33.10;;
50495;SDS011;38806;51.554;5.704;2022-12-04T01:56:31;58.90;;;34.92;;
50495;SDS011;38806;51.554;5.704;2022-12-04T01:58:33;74.68;;;33.75;;
50495;SDS011;38806;51.554;5.704;2022-12-04T02:00:35;69.85;;;38.15;;
50495;SDS011;38806;51.554;5.704;2022-12-04T02:02:36;70.20;;;32.17;;
50495;SDS011;38806;51.554;5.704;2022-12-04T02:04:37;71.07;;;35.72;;
50495;SDS011;38806;51.554;5.704;2022-12-04T02:06:38;67.78;;;35.47;;
50495;SDS011;38806;51.554;5.704;2022-12-04T02:08:39;74.05;;;36.08;;
50495;SDS011;38806;51.554;5.704;2022-12-04T02:17:01;64.28;;;30.73;;
50495;SDS011;38806;51.554;5.704;2022-12-04T02:21:13;64.38;;;31.70;;
50495;SDS011;38806;51.554;5.704;2022-12-04T02:29:43;65.47;;;36.40;;
50495;SDS011;38806;51.554;5.704;2022-12-04T02:32:46;77.43;;;38.58;;
50495;SDS011;38806;51.554;5.704;2022-12-04T02:34:27;66.65;;;34.67;;
50495;SDS011;38806;51.554;5.704;2022-12-04T02:36:28;69.70;;;31.77;;
50495;SDS011;38806;51.554;5.704;2022-12-04T02:38:36;74.40;;;34.35;;
50495;SDS011;38806;51.554;5.704;2022-12-04T02:40:47;62.10;;;27.15;;
50495;SDS011;38806;51.554;5.704;2022-12-04T02:42:52;65.70;;;35.92;;
50495;SDS011;38806;51.554;5.704;2022-12-04T02:44:59;65.57;;;33.30;;
50495;SDS011;38806;51.554;5.704;2022-12-04T02:47:01;69.88;;;35.58;;
50495;SDS011;38806;51.554;5.704;2022-12-04T02:49:04;79.18;;;38.63;;
50495;SDS011;38806;51.554;5.704;2022-12-04T02:51:05;63.97;;;34.05;;
50495;SDS011;38806;51.554;5.704;2022-12-04T02:53:08;77.22;;;35.85;;
50495;SDS011;38806;51.554;5.704;2022-12-04T02:55:14;70.68;;;34.88;;
50495;SDS011;38806;51.554;5.704;2022-12-04T02:57:17;91.88;;;37.78;;
50495;SDS011;38806;51.554;5.704;2022-12-04T02:59:19;69.50;;;37.80;;
50495;SDS011;38806;51.554;5.704;2022-12-04T03:01:24;65.40;;;36.33;;
50495;SDS011;38806;51.554;5.704;2022-12-04T03:03:26;75.97;;;35.83;;
50495;SDS011;38806;51.554;5.704;2022-12-04T03:05:33;58.95;;;31.85;;
50495;SDS011;38806;51.554;5.704;2022-12-04T03:07:51;73.68;;;35.40;;
50495;SDS011;38806;51.554;5.704;2022-12-04T03:09:59;71.68;;;34.60;;
50495;SDS011;38806;51.554;5.704;2022-12-04T03:14:11;74.88;;;37.03;;
50495;SDS011;38806;51.554;5.704;2022-12-04T03:16:22;68.45;;;34.58;;
50495;SDS011;38806;51.554;5.704;2022-12-04T03:18:25;70.55;;;34.17;;
50495;SDS011;38806;51.554;5.704;2022-12-04T03:20:26;69.78;;;33.88;;
50495;SDS011;38806;51.554;5.704;2022-12-04T03:22:27;69.10;;;36.03;;
50495;SDS011;38806;51.554;5.704;2022-12-04T03:24:33;74.82;;;37.85;;
50495;SDS011;38806;51.554;5.704;2022-12-04T03:28:46;68.05;;;35.60;;
50495;SDS011;38806;51.554;5.704;2022-12-04T03:30:51;74.68;;;35.97;;
50495;SDS011;38806;51.554;5.704;2022-12-04T03:36:58;72.25;;;33.90;;
50495;SDS011;38806;51.554;5.704;2022-12-04T03:39:16;73.85;;;35.15;;
50495;SDS011;38806;51.554;5.704;2022-12-04T03:41:32;70.80;;;34.70;;
50495;SDS011;38806;51.554;5.704;2022-12-04T03:43:38;66.70;;;34.67;;
50495;SDS011;38806;51.554;5.704;2022-12-04T03:45:57;68.45;;;34.17;;
50495;SDS011;38806;51.554;5.704;2022-12-04T03:48:03;82.45;;;40.03;;
50495;SDS011;38806;51.554;5.704;2022-12-04T03:54:21;68.30;;;36.60;;
50495;SDS011;38806;51.554;5.704;2022-12-04T03:56:24;72.53;;;36.55;;
50495;SDS011;38806;51.554;5.704;2022-12-04T03:58:27;74.13;;;37.65;;
50495;SDS011;38806;51.554;5.704;2022-12-04T04:00:28;78.43;;;34.60;;
50495;SDS011;38806;51.554;5.704;2022-12-04T04:02:31;66.88;;;34.58;;
50495;SDS011;38806;51.554;5.704;2022-12-04T04:04:34;64.85;;;32.05;;
50495;SDS011;38806;51.554;5.704;2022-12-04T04:06:39;71.13;;;36.95;;
50495;SDS011;38806;51.554;5.704;2022-12-04T04:08:42;70.35;;;34.45;;
50495;SDS011;38806;51.554;5.704;2022-12-04T04:10:43;68.15;;;32.67;;
50495;SDS011;38806;51.554;5.704;2022-12-04T04:12:50;69.63;;;38.30;;
50495;SDS011;38806;51.554;5.704;2022-12-04T04:15:13;69.72;;;36.88;;
50495;SDS011;38806;51.554;5.704;2022-12-04T04:17:33;78.25;;;36.53;;
50495;SDS011;38806;51.554;5.704;2022-12-04T04:19:49;73.47;;;38.13;;
50495;SDS011;38806;51.554;5.704;2022-12-04T04:22:10;74.20;;;35.80;;
50495;SDS011;38806;51.554;5.704;2022-12-04T04:24:33;65.72;;;36.65;;
50495;SDS011;38806;51.554;5.704;2022-12-04T04:26:35;73.80;;;34.72;;
50495;SDS011;38806;51.554;5.704;2022-12-04T04:28:38;76.53;;;41.08;;
50495;SDS011;38806;51.554;5.704;2022-12-04T04:30:38;61.67;;;33.55;;
50495;SDS011;38806;51.554;5.704;2022-12-04T04:32:40;73.28;;;36.92;;
50495;SDS011;38806;51.554;5.704;2022-12-04T04:36:54;74.85;;;35.95;;
50495;SDS011;38806;51.554;5.704;2022-12-04T04:38:58;74.30;;;37.70;;
50495;SDS011;38806;51.554;5.704;2022-12-04T04:45:19;78.80;;;36.80;;
50495;SDS011;38806;51.554;5.704;2022-12-04T04:47:22;71.53;;;35.88;;
50495;SDS011;38806;51.554;5.704;2022-12-04T04:49:27;69.28;;;36.80;;
50495;SDS011;38806;51.554;5.704;2022-12-04T04:51:28;61.70;;;32.53;;
50495;SDS011;38806;51.554;5.704;2022-12-04T04:53:32;69.85;;;33.72;;
50495;SDS011;38806;51.554;5.704;2022-12-04T04:55:34;72.00;;;36.75;;
50495;SDS011;38806;51.554;5.704;2022-12-04T04:57:35;77.15;;;35.88;;
50495;SDS011;38806;51.554;5.704;2022-12-04T04:59:36;68.00;;;35.83;;
50495;SDS011;38806;51.554;5.704;2022-12-04T05:01:36;73.30;;;35.53;;
50495;SDS011;38806;51.554;5.704;2022-12-04T05:03:37;72.63;;;35.35;;
50495;SDS011;38806;51.554;5.704;2022-12-04T05:05:37;76.28;;;38.13;;
50495;SDS011;38806;51.554;5.704;2022-12-04T05:07:37;79.10;;;37.25;;
50495;SDS011;38806;51.554;5.704;2022-12-04T05:09:37;84.57;;;35.28;;
50495;SDS011;38806;51.554;5.704;2022-12-04T05:11:37;67.03;;;33.17;;
50495;SDS011;38806;51.554;5.704;2022-12-04T05:13:38;71.13;;;32.80;;
50495;SDS011;38806;51.554;5.704;2022-12-04T05:15:38;69.28;;;38.13;;
50495;SDS011;38806;51.554;5.704;2022-12-04T05:17:38;72.72;;;37.00;;
50495;SDS011;38806;51.554;5.704;2022-12-04T05:19:38;77.82;;;35.83;;
50495;SDS011;38806;51.554;5.704;2022-12-04T05:21:55;69.30;;;36.13;;
50495;SDS011;38806;51.554;5.704;2022-12-04T05:23:56;73.15;;;36.13;;
50495;SDS011;38806;51.554;5.704;2022-12-04T05:26:00;72.15;;;36.33;;
50495;SDS011;38806;51.554;5.704;2022-12-04T05:28:00;76.93;;;37.20;;
50495;SDS011;38806;51.554;5.704;2022-12-04T05:30:00;84.00;;;39.83;;
50495;SDS011;38806;51.554;5.704;2022-12-04T05:32:01;71.22;;;35.47;;
50495;SDS011;38806;51.554;5.704;2022-12-04T05:34:01;70.80;;;36.53;;
50495;SDS011;38806;51.554;5.704;2022-12-04T05:36:03;74.90;;;33.38;;
50495;SDS011;38806;51.554;5.704;2022-12-04T05:38:04;68.93;;;38.63;;
50495;SDS011;38806;51.554;5.704;2022-12-04T05:40:04;76.07;;;34.63;;
50495;SDS011;38806;51.554;5.704;2022-12-04T05:42:05;75.75;;;37.03;;
50495;SDS011;38806;51.554;5.704;2022-12-04T05:44:05;74.57;;;36.50;;
50495;SDS011;38806;51.554;5.704;2022-12-04T05:46:06;71.28;;;37.35;;
50495;SDS011;38806;51.554;5.704;2022-12-04T05:48:06;73.82;;;33.35;;
50495;SDS011;38806;51.554;5.704;2022-12-04T05:50:07;79.65;;;36.42;;
50495;SDS011;38806;51.554;5.704;2022-12-04T05:52:07;77.57;;;38.00;;
50495;SDS011;38806;51.554;5.704;2022-12-04T05:54:09;68.70;;;35.58;;
50495;SDS011;38806;51.554;5.704;2022-12-04T05:56:09;75.47;;;36.35;;
50495;SDS011;38806;51.554;5.704;2022-12-04T05:58:10;64.18;;;34.75;;
50495;SDS011;38806;51.554;5.704;2022-12-04T06:00:10;70.05;;;35.60;;
50495;SDS011;38806;51.554;5.704;2022-12-04T06:02:10;72.65;;;36.47;;
50495;SDS011;38806;51.554;5.704;2022-12-04T06:04:11;74.07;;;36.17;;
50495;SDS011;38806;51.554;5.704;2022-12-04T06:06:15;70.07;;;35.30;;
50495;SDS011;38806;51.554;5.704;2022-12-04T06:08:16;82.30;;;40.35;;
50495;SDS011;38806;51.554;5.704;2022-12-04T06:10:16;74.57;;;36.58;;
50495;SDS011;38806;51.554;5.704;2022-12-04T06:12:16;78.75;;;38.60;;
50495;SDS011;38806;51.554;5.704;2022-12-04T06:14:17;77.57;;;38.83;;
50495;SDS011;38806;51.554;5.704;2022-12-04T06:16:20;78.65;;;37.33;;
50495;SDS011;38806;51.554;5.704;2022-12-04T06:18:21;67.90;;;36.30;;
50495;SDS011;38806;51.554;5.704;2022-12-04T06:20:21;63.22;;;34.92;;
50495;SDS011;38806;51.554;5.704;2022-12-04T06:22:21;68.20;;;34.53;;
50495;SDS011;38806;51.554;5.704;2022-12-04T06:24:23;74.63;;;35.45;;
50495;SDS011;38806;51.554;5.704;2022-12-04T06:26:23;70.20;;;36.38;;
50495;SDS011;38806;51.554;5.704;2022-12-04T06:28:24;74.00;;;37.22;;
50495;SDS011;38806;51.554;5.704;2022-12-04T06:30:24;74.72;;;37.72;;
50495;SDS011;38806;51.554;5.704;2022-12-04T06:32:24;67.93;;;34.97;;
50495;SDS011;38806;51.554;5.704;2022-12-04T06:34:24;77.18;;;37.85;;
50495;SDS011;38806;51.554;5.704;2022-12-04T06:36:24;65.53;;;36.50;;
50495;SDS011;38806;51.554;5.704;2022-12-04T06:38:25;65.95;;;35.05;;
50495;SDS011;38806;51.554;5.704;2022-12-04T06:40:25;69.68;;;33.65;;
50495;SDS011;38806;51.554;5.704;2022-12-04T06:42:25;70.50;;;33.28;;
50495;SDS011;38806;51.554;5.704;2022-12-04T06:44:25;68.55;;;34.95;;
50495;SDS011;38806;51.554;5.704;2022-12-04T06:46:30;69.00;;;31.38;;
50495;SDS011;38806;51.554;5.704;2022-12-04T06:48:30;56.33;;;32.65;;
50495;SDS011;38806;51.554;5.704;2022-12-04T06:50:30;72.10;;;37.95;;
50495;SDS011;38806;51.554;5.704;2022-12-04T06:52:31;80.38;;;33.65;;
50495;SDS011;38806;51.554;5.704;2022-12-04T06:54:31;64.88;;;37.03;;
50495;SDS011;38806;51.554;5.704;2022-12-04T06:56:32;65.43;;;33.65;;
50495;SDS011;38806;51.554;5.704;2022-12-04T06:58:32;66.65;;;35.28;;
50495;SDS011;38806;51.554;5.704;2022-12-04T07:00:33;68.20;;;31.92;;
50495;SDS011;38806;51.554;5.704;2022-12-04T07:02:33;63.13;;;31.23;;
50495;SDS011;38806;51.554;5.704;2022-12-04T07:04:33;64.00;;;31.95;;
50495;SDS011;38806;51.554;5.704;2022-12-04T07:06:34;70.88;;;35.20;;
50495;SDS011;38806;51.554;5.704;2022-12-04T07:08:35;65.70;;;30.48;;
50495;SDS011;38806;51.554;5.704;2022-12-04T07:10:35;64.50;;;33.45;;
50495;SDS011;38806;51.554;5.704;2022-12-04T07:12:36;63.15;;;31.35;;
50495;SDS011;38806;51.554;5.704;2022-12-04T07:14:36;54.70;;;30.63;;
50495;SDS011;38806;51.554;5.704;2022-12-04T07:16:37;60.05;;;32.17;;
50495;SDS011;38806;51.554;5.704;2022-12-04T07:18:38;65.60;;;34.25;;
50495;SDS011;38806;51.554;5.704;2022-12-04T07:20:38;64.18;;;32.30;;
50495;SDS011;38806;51.554;5.704;2022-12-04T07:22:38;66.65;;;33.40;;
50495;SDS011;38806;51.554;5.704;2022-12-04T07:24:38;56.47;;;30.60;;
50495;SDS011;38806;51.554;5.704;2022-12-04T07:26:39;56.22;;;30.40;;
50495;SDS011;38806;51.554;5.704;2022-12-04T07:28:39;57.90;;;30.55;;
50495;SDS011;38806;51.554;5.704;2022-12-04T07:30:39;57.88;;;28.70;;
50495;SDS011;38806;51.554;5.704;2022-12-04T07:32:39;58.97;;;31.73;;
50495;SDS011;38806;51.554;5.704;2022-12-04T07:34:39;63.60;;;30.50;;
50495;SDS011;38806;51.554;5.704;2022-12-04T07:36:40;56.42;;;29.17;;
50495;SDS011;38806;51.554;5.704;2022-12-04T07:38:40;56.17;;;27.92;;
50495;SDS011;38806;51.554;5.704;2022-12-04T07:40:40;52.28;;;27.88;;
50495;SDS011;38806;51.554;5.704;2022-12-04T07:42:41;50.88;;;27.50;;
50495;SDS011;38806;51.554;5.704;2022-12-04T07:44:41;48.83;;;27.33;;
50495;SDS011;38806;51.554;5.704;2022-12-04T07:46:41;53.38;;;24.65;;
50495;SDS011;38806;51.554;5.704;2022-12-04T07:48:41;54.97;;;26.70;;
50495;SDS011;38806;51.554;5.704;2022-12-04T07:50:42;51.95;;;29.17;;
50495;SDS011;38806;51.554;5.704;2022-12-04T07:52:42;47.78;;;25.05;;
50495;SDS011;38806;51.554;5.704;2022-12-04T07:54:42;56.58;;;30.30;;
50495;SDS011;38806;51.554;5.704;2022-12-04T07:56:42;49.13;;;24.23;;
50495;SDS011;38806;51.554;5.704;2022-12-04T07:58:42;50.78;;;25.05;;
50495;SDS011;38806;51.554;5.704;2022-12-04T08:00:43;53.25;;;24.90;;
50495;SDS011;38806;51.554;5.704;2022-12-04T08:02:43;48.22;;;24.75;;
50495;SDS011;38806;51.554;5.704;2022-12-04T08:04:43;44.65;;;23.23;;
50495;SDS011;38806;51.554;5.704;2022-12-04T08:06:43;46.30;;;24.08;;
50495;SDS011;38806;51.554;5.704;2022-12-04T08:08:44;51.15;;;24.70;;
50495;SDS011;38806;51.554;5.704;2022-12-04T08:10:44;45.92;;;24.08;;
50495;SDS011;38806;51.554;5.704;2022-12-04T08:12:44;46.05;;;26.42;;
50495;SDS011;38806;51.554;5.704;2022-12-04T08:14:45;53.25;;;24.23;;
50495;SDS011;38806;51.554;5.704;2022-12-04T08:16:45;51.97;;;23.67;;
50495;SDS011;38806;51.554;5.704;2022-12-04T08:18:47;47.45;;;25.55;;
50495;SDS011;38806;51.554;5.704;2022-12-04T08:20:47;50.92;;;26.10;;
50495;SDS011;38806;51.554;5.704;2022-12-04T08:22:48;45.10;;;25.20;;
50495;SDS011;38806;51.554;5.704;2022-12-04T08:24:48;49.72;;;25.73;;
50495;SDS011;38806;51.554;5.704;2022-12-04T08:26:48;42.17;;;24.77;;
50495;SDS011;38806;51.554;5.704;2022-12-04T08:28:51;50.10;;;24.70;;
50495;SDS011;38806;51.554;5.704;2022-12-04T08:30:51;47.42;;;25.42;;
50495;SDS011;38806;51.554;5.704;2022-12-04T08:32:51;51.20;;;25.63;;
50495;SDS011;38806;51.554;5.704;2022-12-04T08:34:51;50.22;;;24.63;;
50495;SDS011;38806;51.554;5.704;2022-12-04T08:36:51;48.92;;;22.83;;
50495;SDS011;38806;51.554;5.704;2022-12-04T08:38:52;41.90;;;22.77;;
50495;SDS011;38806;51.554;5.704;2022-12-04T08:40:52;49.30;;;25.67;;
50495;SDS011;38806;51.554;5.704;2022-12-04T08:42:52;38.47;;;21.42;;
50495;SDS011;38806;51.554;5.704;2022-12-04T08:44:52;42.53;;;22.17;;
50495;SDS011;38806;51.554;5.704;2022-12-04T08:46:53;40.50;;;24.75;;
50495;SDS011;38806;51.554;5.704;2022-12-04T08:48:53;50.03;;;24.52;;
50495;SDS011;38806;51.554;5.704;2022-12-04T08:50:53;44.70;;;24.08;;
50495;SDS011;38806;51.554;5.704;2022-12-04T08:52:54;39.55;;;22.75;;
50495;SDS011;38806;51.554;5.704;2022-12-04T08:54:54;40.97;;;21.83;;
50495;SDS011;38806;51.554;5.704;2022-12-04T08:56:54;40.35;;;21.08;;
50495;SDS011;38806;51.554;5.704;2022-12-04T08:58:55;38.63;;;20.05;;
50495;SDS011;38806;51.554;5.704;2022-12-04T09:00:55;42.72;;;23.90;;
50495;SDS011;38806;51.554;5.704;2022-12-04T09:03:01;43.30;;;23.00;;
50495;SDS011;38806;51.554;5.704;2022-12-04T09:05:02;38.35;;;21.05;;
50495;SDS011;38806;51.554;5.704;2022-12-04T09:07:02;40.20;;;21.13;;
50495;SDS011;38806;51.554;5.704;2022-12-04T09:09:02;38.67;;;21.63;;
50495;SDS011;38806;51.554;5.704;2022-12-04T09:11:07;38.30;;;20.42;;
50495;SDS011;38806;51.554;5.704;2022-12-04T09:13:07;40.00;;;21.30;;
50495;SDS011;38806;51.554;5.704;2022-12-04T09:15:07;39.30;;;19.42;;
50495;SDS011;38806;51.554;5.704;2022-12-04T09:17:08;35.70;;;19.52;;
50495;SDS011;38806;51.554;5.704;2022-12-04T09:19:08;40.97;;;21.05;;
50495;SDS011;38806;51.554;5.704;2022-12-04T09:21:09;42.30;;;20.40;;
50495;SDS011;38806;51.554;5.704;2022-12-04T09:23:10;36.15;;;18.88;;
50495;SDS011;38806;51.554;5.704;2022-12-04T09:25:10;39.55;;;19.88;;
50495;SDS011;38806;51.554;5.704;2022-12-04T09:27:11;37.58;;;18.45;;
50495;SDS011;38806;51.554;5.704;2022-12-04T09:29:11;34.83;;;19.48;;
50495;SDS011;38806;51.554;5.704;2022-12-04T09:31:11;34.28;;;19.05;;
50495;SDS011;38806;51.554;5.704;2022-12-04T09:33:11;35.95;;;18.20;;
50495;SDS011;38806;51.554;5.704;2022-12-04T09:35:12;33.70;;;18.95;;
50495;SDS011;38806;51.554;5.704;2022-12-04T09:37:12;31.17;;;18.75;;
50495;SDS011;38806;51.554;5.704;2022-12-04T09:39:12;36.72;;;21.15;;
50495;SDS011;38806;51.554;5.704;2022-12-04T09:43:26;39.38;;;19.58;;
50495;SDS011;38806;51.554;5.704;2022-12-04T09:45:28;41.03;;;18.38;;
50495;SDS011;38806;51.554;5.704;2022-12-04T09:47:33;38.30;;;18.73;;
50495;SDS011;38806;51.554;5.704;2022-12-04T09:49:40;43.80;;;21.50;;
50495;SDS011;38806;51.554;5.704;2022-12-04T09:51:41;36.35;;;20.20;;
50495;SDS011;38806;51.554;5.704;2022-12-04T09:53:46;41.05;;;23.15;;
50495;SDS011;38806;51.554;5.704;2022-12-04T09:55:53;36.83;;;20.70;;
50495;SDS011;38806;51.554;5.704;2022-12-04T09:57:55;34.35;;;18.77;;
50495;SDS011;38806;51.554;5.704;2022-12-04T09:59:58;42.15;;;20.42;;
50495;SDS011;38806;51.554;5.704;2022-12-04T10:04:11;37.13;;;20.35;;
50495;SDS011;38806;51.554;5.704;2022-12-04T10:06:22;44.00;;;21.50;;
50495;SDS011;38806;51.554;5.704;2022-12-04T10:08:27;34.47;;;19.75;;
50495;SDS011;38806;51.554;5.704;2022-12-04T10:12:42;36.78;;;18.73;;
50495;SDS011;38806;51.554;5.704;2022-12-04T10:19:21;41.17;;;21.75;;
50495;SDS011;38806;51.554;5.704;2022-12-04T10:21:41;35.47;;;20.48;;
50495;SDS011;38806;51.554;5.704;2022-12-04T10:25:58;39.75;;;20.20;;
50495;SDS011;38806;51.554;5.704;2022-12-04T10:28:42;40.17;;;21.38;;
50495;SDS011;38806;51.554;5.704;2022-12-04T10:30:27;37.72;;;21.08;;
50495;SDS011;38806;51.554;5.704;2022-12-04T10:32:29;37.33;;;19.35;;
50495;SDS011;38806;51.554;5.704;2022-12-04T10:34:30;37.47;;;20.77;;
50495;SDS011;38806;51.554;5.704;2022-12-04T10:36:31;39.53;;;20.92;;
50495;SDS011;38806;51.554;5.704;2022-12-04T10:40:49;38.67;;;18.63;;
50495;SDS011;38806;51.554;5.704;2022-12-04T10:42:52;36.72;;;22.05;;
50495;SDS011;38806;51.554;5.704;2022-12-04T10:44:53;35.00;;;20.02;;
50495;SDS011;38806;51.554;5.704;2022-12-04T10:46:54;43.35;;;22.67;;
50495;SDS011;38806;51.554;5.704;2022-12-04T10:49:00;34.35;;;19.02;;
50495;SDS011;38806;51.554;5.704;2022-12-04T10:51:01;29.30;;;18.15;;
50495;SDS011;38806;51.554;5.704;2022-12-04T10:53:01;43.35;;;22.23;;
50495;SDS011;38806;51.554;5.704;2022-12-04T10:55:01;32.83;;;20.90;;
50495;SDS011;38806;51.554;5.704;2022-12-04T10:57:04;38.35;;;19.77;;
50495;SDS011;38806;51.554;5.704;2022-12-04T10:59:05;35.15;;;17.80;;
50495;SDS011;38806;51.554;5.704;2022-12-04T11:01:07;31.67;;;19.27;;
50495;SDS011;38806;51.554;5.704;2022-12-04T11:03:08;35.22;;;19.05;;
50495;SDS011;38806;51.554;5.704;2022-12-04T11:05:21;30.50;;;19.17;;
50495;SDS011;38806;51.554;5.704;2022-12-04T11:07:25;37.58;;;20.52;;
50495;SDS011;38806;51.554;5.704;2022-12-04T11:09:26;43.50;;;21.58;;
50495;SDS011;38806;51.554;5.704;2022-12-04T11:11:29;37.30;;;19.27;;
50495;SDS011;38806;51.554;5.704;2022-12-04T11:13:30;43.72;;;20.98;;
50495;SDS011;38806;51.554;5.704;2022-12-04T11:15:30;37.08;;;18.25;;
50495;SDS011;38806;51.554;5.704;2022-12-04T11:17:33;44.97;;;21.65;;
50495;SDS011;38806;51.554;5.704;2022-12-04T11:19:34;38.00;;;21.55;;
50495;SDS011;38806;51.554;5.704;2022-12-04T11:21:37;39.58;;;19.67;;
50495;SDS011;38806;51.554;5.704;2022-12-04T11:23:41;34.30;;;19.10;;
50495;SDS011;38806;51.554;5.704;2022-12-04T11:25:45;39.00;;;19.17;;
50495;SDS011;38806;51.554;5.704;2022-12-04T11:27:47;34.83;;;17.95;;
50495;SDS011;38806;51.554;5.704;2022-12-04T11:29:48;34.38;;;18.48;;
50495;SDS011;38806;51.554;5.704;2022-12-04T11:31:49;34.95;;;21.58;;
50495;SDS011;38806;51.554;5.704;2022-12-04T11:33:54;30.45;;;18.33;;
50495;SDS011;38806;51.554;5.704;2022-12-04T11:35:58;36.67;;;19.88;;
50495;SDS011;38806;51.554;5.704;2022-12-04T11:40:03;34.35;;;18.83;;
50495;SDS011;38806;51.554;5.704;2022-12-04T11:44:35;33.78;;;19.27;;
50495;SDS011;38806;51.554;5.704;2022-12-04T11:46:35;38.67;;;19.92;;
50495;SDS011;38806;51.554;5.704;2022-12-04T11:48:43;28.02;;;18.00;;
50495;SDS011;38806;51.554;5.704;2022-12-04T11:52:46;34.17;;;20.27;;
50495;SDS011;38806;51.554;5.704;2022-12-04T11:54:55;34.70;;;19.42;;
50495;SDS011;38806;51.554;5.704;2022-12-04T11:57:03;32.72;;;19.50;;
50495;SDS011;38806;51.554;5.704;2022-12-04T12:12:18;29.95;;;19.27;;
50495;SDS011;38806;51.554;5.704;2022-12-04T12:14:27;35.13;;;19.60;;
50495;SDS011;38806;51.554;5.704;2022-12-04T12:20:32;36.40;;;18.92;;
50495;SDS011;38806;51.554;5.704;2022-12-04T12:29:10;31.67;;;17.80;;
50495;SDS011;38806;51.554;5.704;2022-12-04T12:35:23;28.35;;;17.77;;
50495;SDS011;38806;51.554;5.704;2022-12-04T12:39:24;32.15;;;18.50;;
50495;SDS011;38806;51.554;5.704;2022-12-04T12:42:08;32.92;;;18.58;;
50495;SDS011;38806;51.554;5.704;2022-12-04T12:46:23;33.83;;;17.70;;
50495;SDS011;38806;51.554;5.704;2022-12-04T12:48:31;32.08;;;17.05;;
50495;SDS011;38806;51.554;5.704;2022-12-04T12:50:37;29.48;;;16.98;;
50495;SDS011;38806;51.554;5.704;2022-12-04T12:52:52;34.25;;;19.30;;
50495;SDS011;38806;51.554;5.704;2022-12-04T12:54:55;29.65;;;18.38;;
50495;SDS011;38806;51.554;5.704;2022-12-04T12:57:32;32.33;;;17.20;;
50495;SDS011;38806;51.554;5.704;2022-12-04T12:59:24;32.00;;;17.08;;
50495;SDS011;38806;51.554;5.704;2022-12-04T13:05:28;26.90;;;18.33;;
50495;SDS011;38806;51.554;5.704;2022-12-04T13:12:14;36.25;;;17.38;;
50495;SDS011;38806;51.554;5.704;2022-12-04T13:14:14;34.40;;;18.80;;
50495;SDS011;38806;51.554;5.704;2022-12-04T13:16:22;32.08;;;18.90;;
50495;SDS011;38806;51.554;5.704;2022-12-04T13:20:28;30.60;;;17.92;;
50495;SDS011;38806;51.554;5.704;2022-12-04T13:28:56;35.00;;;18.67;;
50495;SDS011;38806;51.554;5.704;2022-12-04T13:31:02;36.67;;;20.45;;
50495;SDS011;38806;51.554;5.704;2022-12-04T13:33:24;30.23;;;18.35;;
50495;SDS011;38806;51.554;5.704;2022-12-04T13:41:44;31.33;;;19.70;;
50495;SDS011;38806;51.554;5.704;2022-12-04T13:43:45;34.30;;;20.20;;
50495;SDS011;38806;51.554;5.704;2022-12-04T13:45:46;36.10;;;18.10;;
50495;SDS011;38806;51.554;5.704;2022-12-04T13:47:54;28.08;;;17.05;;
50495;SDS011;38806;51.554;5.704;2022-12-04T13:50:04;31.00;;;19.00;;
50495;SDS011;38806;51.554;5.704;2022-12-04T13:52:18;33.20;;;20.10;;